sensor_id;sensor_type;location;lat;lon;timestamp;P1;durP1;ratioP1;P2;durP2;ratioP2
9248;SDS011;4660;41.768;26.198;2023-04-25T00:00:04;4.67;;;3.80;;
9248;SDS011;4660;41.768;26.198;2023-04-25T00:02:32;4.47;;;4.00;;
9248;SDS011;4660;41.768;26.198;2023-04-25T00:05:00;5.47;;;4.00;;
9248;SDS011;4660;41.768;26.198;2023-04-25T00:07:27;5.87;;;3.73;;
9248;SDS011;4660;41.768;26.198;2023-04-25T00:09:52;4.57;;;3.67;;
9248;SDS011;4660;41.768;26.198;2023-04-25T00:12:18;4.93;;;3.60;;
9248;SDS011;4660;41.768;26.198;2023-04-25T00:14:43;5.20;;;3.83;;
9248;SDS011;4660;41.768;26.198;2023-04-25T00:17:10;4.63;;;4.13;;
9248;SDS011;4660;41.768;26.198;2023-04-25T00:19:37;5.27;;;3.80;;
9248;SDS011;4660;41.768;26.198;2023-04-25T00:22:03;5.73;;;4.03;;
9248;SDS011;4660;41.768;26.198;2023-04-25T00:24:28;7.13;;;4.33;;
9248;SDS011;4660;41.768;26.198;2023-04-25T00:26:54;4.63;;;3.70;;
9248;SDS011;4660;41.768;26.198;2023-04-25T00:29:19;4.30;;;3.57;;
9248;SDS011;4660;41.768;26.198;2023-04-25T00:31:45;8.63;;;4.57;;
9248;SDS011;4660;41.768;26.198;2023-04-25T00:34:11;4.10;;;3.67;;
9248;SDS011;4660;41.768;26.198;2023-04-25T00:36:36;5.03;;;3.33;;
9248;SDS011;4660;41.768;26.198;2023-04-25T00:39:03;4.63;;;3.83;;
9248;SDS011;4660;41.768;26.198;2023-04-25T00:41:29;7.73;;;4.43;;
9248;SDS011;4660;41.768;26.198;2023-04-25T00:43:55;6.53;;;4.07;;
9248;SDS011;4660;41.768;26.198;2023-04-25T00:46:22;5.33;;;3.97;;
9248;SDS011;4660;41.768;26.198;2023-04-25T00:48:48;6.77;;;4.03;;
9248;SDS011;4660;41.768;26.198;2023-04-25T00:51:14;4.53;;;4.00;;
9248;SDS011;4660;41.768;26.198;2023-04-25T00:53:44;5.97;;;4.13;;
9248;SDS011;4660;41.768;26.198;2023-04-25T00:56:10;7.83;;;4.30;;
9248;SDS011;4660;41.768;26.198;2023-04-25T00:58:36;6.33;;;4.10;;
9248;SDS011;4660;41.768;26.198;2023-04-25T01:01:02;5.70;;;4.17;;
9248;SDS011;4660;41.768;26.198;2023-04-25T01:03:28;4.40;;;4.00;;
9248;SDS011;4660;41.768;26.198;2023-04-25T01:05:55;5.23;;;4.20;;
9248;SDS011;4660;41.768;26.198;2023-04-25T01:08:23;5.43;;;3.67;;
9248;SDS011;4660;41.768;26.198;2023-04-25T01:10:50;6.77;;;4.40;;
9248;SDS011;4660;41.768;26.198;2023-04-25T01:13:16;5.93;;;4.23;;
9248;SDS011;4660;41.768;26.198;2023-04-25T01:15:42;7.30;;;4.27;;
9248;SDS011;4660;41.768;26.198;2023-04-25T01:18:07;10.07;;;3.63;;
9248;SDS011;4660;41.768;26.198;2023-04-25T01:20:33;7.93;;;3.90;;
9248;SDS011;4660;41.768;26.198;2023-04-25T01:22:59;6.07;;;4.33;;
9248;SDS011;4660;41.768;26.198;2023-04-25T01:25:25;6.17;;;4.73;;
9248;SDS011;4660;41.768;26.198;2023-04-25T01:27:51;9.70;;;4.37;;
9248;SDS011;4660;41.768;26.198;2023-04-25T01:30:17;5.60;;;4.63;;
9248;SDS011;4660;41.768;26.198;2023-04-25T01:32:43;5.47;;;4.63;;
9248;SDS011;4660;41.768;26.198;2023-04-25T01:35:10;5.53;;;4.43;;
9248;SDS011;4660;41.768;26.198;2023-04-25T01:40:02;5.10;;;4.20;;
9248;SDS011;4660;41.768;26.198;2023-04-25T01:42:30;7.60;;;4.33;;
9248;SDS011;4660;41.768;26.198;2023-04-25T01:45:00;4.93;;;3.80;;
9248;SDS011;4660;41.768;26.198;2023-04-25T01:47:26;5.33;;;3.97;;
9248;SDS011;4660;41.768;26.198;2023-04-25T01:49:52;7.67;;;3.90;;
9248;SDS011;4660;41.768;26.198;2023-04-25T01:52:17;4.70;;;3.90;;
9248;SDS011;4660;41.768;26.198;2023-04-25T01:54:43;4.43;;;3.93;;
9248;SDS011;4660;41.768;26.198;2023-04-25T01:57:10;8.50;;;5.17;;
9248;SDS011;4660;41.768;26.198;2023-04-25T01:59:36;4.57;;;3.60;;
9248;SDS011;4660;41.768;26.198;2023-04-25T02:02:02;8.03;;;4.00;;
9248;SDS011;4660;41.768;26.198;2023-04-25T02:04:31;4.50;;;3.97;;
9248;SDS011;4660;41.768;26.198;2023-04-25T02:06:57;5.07;;;4.13;;
9248;SDS011;4660;41.768;26.198;2023-04-25T02:09:23;5.50;;;4.17;;
9248;SDS011;4660;41.768;26.198;2023-04-25T02:11:49;6.73;;;4.33;;
9248;SDS011;4660;41.768;26.198;2023-04-25T02:14:15;7.57;;;4.90;;
9248;SDS011;4660;41.768;26.198;2023-04-25T02:16:41;6.43;;;4.00;;
9248;SDS011;4660;41.768;26.198;2023-04-25T02:19:09;7.03;;;4.70;;
9248;SDS011;4660;41.768;26.198;2023-04-25T02:21:35;4.47;;;4.07;;
9248;SDS011;4660;41.768;26.198;2023-04-25T02:24:01;5.70;;;4.57;;
9248;SDS011;4660;41.768;26.198;2023-04-25T02:26:26;6.57;;;4.70;;
9248;SDS011;4660;41.768;26.198;2023-04-25T02:28:52;9.43;;;4.70;;
9248;SDS011;4660;41.768;26.198;2023-04-25T02:31:18;7.87;;;4.47;;
9248;SDS011;4660;41.768;26.198;2023-04-25T02:33:43;6.57;;;4.20;;
9248;SDS011;4660;41.768;26.198;2023-04-25T02:36:09;7.30;;;4.47;;
9248;SDS011;4660;41.768;26.198;2023-04-25T02:38:35;5.57;;;4.63;;
9248;SDS011;4660;41.768;26.198;2023-04-25T02:41:00;8.43;;;4.83;;
9248;SDS011;4660;41.768;26.198;2023-04-25T02:43:26;5.97;;;4.50;;
9248;SDS011;4660;41.768;26.198;2023-04-25T02:45:51;9.83;;;5.20;;
9248;SDS011;4660;41.768;26.198;2023-04-25T02:48:17;13.60;;;6.60;;
9248;SDS011;4660;41.768;26.198;2023-04-25T02:50:43;14.17;;;6.30;;
9248;SDS011;4660;41.768;26.198;2023-04-25T02:53:08;20.07;;;10.07;;
9248;SDS011;4660;41.768;26.198;2023-04-25T02:55:34;13.10;;;7.33;;
9248;SDS011;4660;41.768;26.198;2023-04-25T02:57:59;7.93;;;5.60;;
9248;SDS011;4660;41.768;26.198;2023-04-25T03:00:25;14.07;;;6.00;;
9248;SDS011;4660;41.768;26.198;2023-04-25T03:02:51;13.60;;;7.00;;
9248;SDS011;4660;41.768;26.198;2023-04-25T03:05:16;7.83;;;5.80;;
9248;SDS011;4660;41.768;26.198;2023-04-25T03:07:42;10.73;;;5.57;;
9248;SDS011;4660;41.768;26.198;2023-04-25T03:10:09;7.37;;;5.23;;
9248;SDS011;4660;41.768;26.198;2023-04-25T03:12:35;8.20;;;5.40;;
9248;SDS011;4660;41.768;26.198;2023-04-25T03:15:01;7.27;;;5.27;;
9248;SDS011;4660;41.768;26.198;2023-04-25T03:17:27;9.87;;;5.17;;
9248;SDS011;4660;41.768;26.198;2023-04-25T03:19:52;6.13;;;5.53;;
9248;SDS011;4660;41.768;26.198;2023-04-25T03:22:17;11.23;;;5.60;;
9248;SDS011;4660;41.768;26.198;2023-04-25T03:24:43;7.40;;;5.33;;
9248;SDS011;4660;41.768;26.198;2023-04-25T03:27:08;11.17;;;6.37;;
9248;SDS011;4660;41.768;26.198;2023-04-25T03:29:34;10.97;;;6.27;;
9248;SDS011;4660;41.768;26.198;2023-04-25T03:32:00;7.27;;;5.97;;
9248;SDS011;4660;41.768;26.198;2023-04-25T03:34:26;11.87;;;7.00;;
9248;SDS011;4660;41.768;26.198;2023-04-25T03:36:51;7.90;;;6.67;;
9248;SDS011;4660;41.768;26.198;2023-04-25T03:39:17;7.93;;;6.70;;
9248;SDS011;4660;41.768;26.198;2023-04-25T03:41:43;9.50;;;6.90;;
9248;SDS011;4660;41.768;26.198;2023-04-25T03:44:08;10.47;;;6.50;;
9248;SDS011;4660;41.768;26.198;2023-04-25T03:46:34;8.63;;;7.00;;
9248;SDS011;4660;41.768;26.198;2023-04-25T03:48:59;17.07;;;7.77;;
9248;SDS011;4660;41.768;26.198;2023-04-25T03:51:25;11.80;;;6.70;;
9248;SDS011;4660;41.768;26.198;2023-04-25T03:53:51;10.07;;;6.83;;
9248;SDS011;4660;41.768;26.198;2023-04-25T03:56:17;10.50;;;7.17;;
9248;SDS011;4660;41.768;26.198;2023-04-25T03:58:42;10.13;;;7.27;;
9248;SDS011;4660;41.768;26.198;2023-04-25T04:01:08;8.63;;;7.00;;
9248;SDS011;4660;41.768;26.198;2023-04-25T04:03:35;8.83;;;6.83;;
9248;SDS011;4660;41.768;26.198;2023-04-25T04:06:05;13.53;;;7.70;;
9248;SDS011;4660;41.768;26.198;2023-04-25T04:14:19;8.40;;;7.17;;
9248;SDS011;4660;41.768;26.198;2023-04-25T04:16:46;11.50;;;7.67;;
9248;SDS011;4660;41.768;26.198;2023-04-25T04:21:48;9.90;;;7.40;;
9248;SDS011;4660;41.768;26.198;2023-04-25T04:24:53;10.37;;;7.10;;
9248;SDS011;4660;41.768;26.198;2023-04-25T04:27:22;9.47;;;7.20;;
9248;SDS011;4660;41.768;26.198;2023-04-25T04:29:50;14.83;;;8.53;;
9248;SDS011;4660;41.768;26.198;2023-04-25T04:32:44;10.97;;;8.33;;
9248;SDS011;4660;41.768;26.198;2023-04-25T04:35:19;10.63;;;8.97;;
9248;SDS011;4660;41.768;26.198;2023-04-25T04:37:44;14.77;;;9.53;;
9248;SDS011;4660;41.768;26.198;2023-04-25T04:40:13;13.27;;;8.50;;
9248;SDS011;4660;41.768;26.198;2023-04-25T04:42:59;12.17;;;8.73;;
9248;SDS011;4660;41.768;26.198;2023-04-25T04:45:25;14.90;;;9.03;;
9248;SDS011;4660;41.768;26.198;2023-04-25T04:47:52;16.67;;;9.03;;
9248;SDS011;4660;41.768;26.198;2023-04-25T04:50:20;14.27;;;8.80;;
9248;SDS011;4660;41.768;26.198;2023-04-25T04:52:46;10.43;;;8.97;;
9248;SDS011;4660;41.768;26.198;2023-04-25T04:55:36;10.23;;;8.70;;
9248;SDS011;4660;41.768;26.198;2023-04-25T04:58:04;12.13;;;9.13;;
9248;SDS011;4660;41.768;26.198;2023-04-25T05:00:32;10.07;;;8.70;;
9248;SDS011;4660;41.768;26.198;2023-04-25T05:03:05;12.07;;;8.93;;
9248;SDS011;4660;41.768;26.198;2023-04-25T05:05:39;11.60;;;9.10;;
9248;SDS011;4660;41.768;26.198;2023-04-25T05:08:16;13.10;;;9.93;;
9248;SDS011;4660;41.768;26.198;2023-04-25T05:10:46;10.67;;;9.27;;
9248;SDS011;4660;41.768;26.198;2023-04-25T05:13:39;11.77;;;9.37;;
9248;SDS011;4660;41.768;26.198;2023-04-25T05:16:16;12.77;;;9.43;;
9248;SDS011;4660;41.768;26.198;2023-04-25T05:19:05;15.37;;;9.80;;
9248;SDS011;4660;41.768;26.198;2023-04-25T05:21:54;12.70;;;9.77;;
9248;SDS011;4660;41.768;26.198;2023-04-25T05:24:52;13.30;;;9.63;;
9248;SDS011;4660;41.768;26.198;2023-04-25T05:27:39;11.10;;;9.33;;
9248;SDS011;4660;41.768;26.198;2023-04-25T05:30:15;11.80;;;9.73;;
9248;SDS011;4660;41.768;26.198;2023-04-25T05:32:59;12.00;;;9.40;;
9248;SDS011;4660;41.768;26.198;2023-04-25T05:35:27;13.07;;;10.20;;
9248;SDS011;4660;41.768;26.198;2023-04-25T05:37:53;11.20;;;9.97;;
9248;SDS011;4660;41.768;26.198;2023-04-25T05:40:27;16.13;;;9.57;;
9248;SDS011;4660;41.768;26.198;2023-04-25T05:43:17;9.27;;;8.20;;
9248;SDS011;4660;41.768;26.198;2023-04-25T05:46:04;12.43;;;8.53;;
9248;SDS011;4660;41.768;26.198;2023-04-25T05:48:29;10.40;;;8.10;;
9248;SDS011;4660;41.768;26.198;2023-04-25T05:50:55;12.83;;;8.17;;
9248;SDS011;4660;41.768;26.198;2023-04-25T05:53:26;14.63;;;8.27;;
9248;SDS011;4660;41.768;26.198;2023-04-25T05:55:53;9.83;;;7.07;;
9248;SDS011;4660;41.768;26.198;2023-04-25T05:58:25;9.83;;;7.63;;
9248;SDS011;4660;41.768;26.198;2023-04-25T06:00:52;10.23;;;7.30;;
9248;SDS011;4660;41.768;26.198;2023-04-25T06:03:21;14.60;;;8.57;;
9248;SDS011;4660;41.768;26.198;2023-04-25T06:05:52;19.80;;;8.60;;
9248;SDS011;4660;41.768;26.198;2023-04-25T06:08:19;9.20;;;7.43;;
9248;SDS011;4660;41.768;26.198;2023-04-25T06:10:45;9.57;;;8.07;;
9248;SDS011;4660;41.768;26.198;2023-04-25T06:13:13;11.80;;;8.27;;
9248;SDS011;4660;41.768;26.198;2023-04-25T06:15:40;17.00;;;8.27;;
9248;SDS011;4660;41.768;26.198;2023-04-25T06:18:07;14.70;;;8.80;;
9248;SDS011;4660;41.768;26.198;2023-04-25T06:20:34;21.60;;;9.27;;
9248;SDS011;4660;41.768;26.198;2023-04-25T06:23:06;26.03;;;8.73;;
9248;SDS011;4660;41.768;26.198;2023-04-25T06:26:03;12.00;;;8.23;;
9248;SDS011;4660;41.768;26.198;2023-04-25T06:28:42;13.50;;;7.80;;
9248;SDS011;4660;41.768;26.198;2023-04-25T06:31:29;9.83;;;7.17;;
9248;SDS011;4660;41.768;26.198;2023-04-25T06:34:01;20.63;;;8.90;;
9248;SDS011;4660;41.768;26.198;2023-04-25T06:36:53;8.30;;;6.40;;
9248;SDS011;4660;41.768;26.198;2023-04-25T06:39:20;10.00;;;5.77;;
9248;SDS011;4660;41.768;26.198;2023-04-25T06:41:48;8.50;;;6.20;;
9248;SDS011;4660;41.768;26.198;2023-04-25T06:44:15;9.80;;;7.27;;
9248;SDS011;4660;41.768;26.198;2023-04-25T06:46:48;9.57;;;6.83;;
9248;SDS011;4660;41.768;26.198;2023-04-25T06:49:16;9.00;;;6.53;;
9248;SDS011;4660;41.768;26.198;2023-04-25T06:51:43;12.07;;;6.93;;
9248;SDS011;4660;41.768;26.198;2023-04-25T06:54:20;7.57;;;6.83;;
9248;SDS011;4660;41.768;26.198;2023-04-25T06:56:52;6.68;;;6.00;;
9248;SDS011;4660;41.768;26.198;2023-04-25T06:59:19;6.90;;;6.30;;
9248;SDS011;4660;41.768;26.198;2023-04-25T07:01:52;8.55;;;6.47;;
9248;SDS011;4660;41.768;26.198;2023-04-25T07:04:21;6.90;;;6.20;;
9248;SDS011;4660;41.768;26.198;2023-04-25T07:06:48;8.18;;;5.40;;
9248;SDS011;4660;41.768;26.198;2023-04-25T07:09:43;5.97;;;4.87;;
9248;SDS011;4660;41.768;26.198;2023-04-25T07:12:14;9.35;;;6.38;;
9248;SDS011;4660;41.768;26.198;2023-04-25T07:14:41;7.20;;;6.18;;
9248;SDS011;4660;41.768;26.198;2023-04-25T07:17:08;6.32;;;5.28;;
9248;SDS011;4660;41.768;26.198;2023-04-25T07:19:34;7.05;;;5.47;;
9248;SDS011;4660;41.768;26.198;2023-04-25T07:22:03;7.57;;;5.30;;
9248;SDS011;4660;41.768;26.198;2023-04-25T07:24:36;6.28;;;5.68;;
9248;SDS011;4660;41.768;26.198;2023-04-25T07:27:03;10.07;;;4.65;;
9248;SDS011;4660;41.768;26.198;2023-04-25T07:29:34;7.60;;;4.88;;
9248;SDS011;4660;41.768;26.198;2023-04-25T07:32:08;9.25;;;4.90;;
9248;SDS011;4660;41.768;26.198;2023-04-25T07:35:16;8.80;;;4.90;;
9248;SDS011;4660;41.768;26.198;2023-04-25T07:37:43;8.75;;;4.85;;
9248;SDS011;4660;41.768;26.198;2023-04-25T07:40:09;7.93;;;4.45;;
9248;SDS011;4660;41.768;26.198;2023-04-25T07:42:42;7.90;;;4.30;;
9248;SDS011;4660;41.768;26.198;2023-04-25T07:45:07;12.52;;;6.13;;
9248;SDS011;4660;41.768;26.198;2023-04-25T07:47:34;9.52;;;4.43;;
9248;SDS011;4660;41.768;26.198;2023-04-25T07:50:02;4.40;;;3.95;;
9248;SDS011;4660;41.768;26.198;2023-04-25T07:52:29;5.43;;;3.63;;
9248;SDS011;4660;41.768;26.198;2023-04-25T07:54:55;6.00;;;4.07;;
9248;SDS011;4660;41.768;26.198;2023-04-25T07:57:23;5.45;;;4.03;;
9248;SDS011;4660;41.768;26.198;2023-04-25T07:59:49;12.73;;;4.10;;
9248;SDS011;4660;41.768;26.198;2023-04-25T08:02:16;6.10;;;3.50;;
9248;SDS011;4660;41.768;26.198;2023-04-25T08:04:42;5.72;;;4.15;;
9248;SDS011;4660;41.768;26.198;2023-04-25T08:07:07;4.93;;;3.78;;
9248;SDS011;4660;41.768;26.198;2023-04-25T08:09:34;7.28;;;4.25;;
9248;SDS011;4660;41.768;26.198;2023-04-25T08:12:03;5.70;;;4.25;;
9248;SDS011;4660;41.768;26.198;2023-04-25T08:14:30;8.85;;;4.13;;
9248;SDS011;4660;41.768;26.198;2023-04-25T08:17:02;9.20;;;4.10;;
9248;SDS011;4660;41.768;26.198;2023-04-25T08:19:29;6.13;;;4.53;;
9248;SDS011;4660;41.768;26.198;2023-04-25T08:21:58;9.30;;;4.70;;
9248;SDS011;4660;41.768;26.198;2023-04-25T08:24:25;8.07;;;4.05;;
9248;SDS011;4660;41.768;26.198;2023-04-25T08:26:53;5.22;;;4.43;;
9248;SDS011;4660;41.768;26.198;2023-04-25T08:29:19;6.43;;;4.22;;
9248;SDS011;4660;41.768;26.198;2023-04-25T08:31:45;14.10;;;4.72;;
9248;SDS011;4660;41.768;26.198;2023-04-25T08:34:11;5.43;;;4.43;;
9248;SDS011;4660;41.768;26.198;2023-04-25T08:36:36;5.20;;;4.32;;
9248;SDS011;4660;41.768;26.198;2023-04-25T08:39:02;8.48;;;4.65;;
9248;SDS011;4660;41.768;26.198;2023-04-25T08:41:28;5.47;;;4.40;;
9248;SDS011;4660;41.768;26.198;2023-04-25T08:43:54;5.72;;;3.85;;
9248;SDS011;4660;41.768;26.198;2023-04-25T08:46:22;6.90;;;4.55;;
9248;SDS011;4660;41.768;26.198;2023-04-25T08:48:50;4.57;;;3.85;;
9248;SDS011;4660;41.768;26.198;2023-04-25T08:51:26;7.00;;;4.20;;
9248;SDS011;4660;41.768;26.198;2023-04-25T08:53:53;7.65;;;3.90;;
9248;SDS011;4660;41.768;26.198;2023-04-25T08:56:19;7.65;;;4.15;;
9248;SDS011;4660;41.768;26.198;2023-04-25T08:58:51;4.07;;;3.50;;
9248;SDS011;4660;41.768;26.198;2023-04-25T09:01:17;5.15;;;3.63;;
9248;SDS011;4660;41.768;26.198;2023-04-25T09:03:44;4.15;;;3.75;;
9248;SDS011;4660;41.768;26.198;2023-04-25T09:06:12;4.05;;;3.60;;
9248;SDS011;4660;41.768;26.198;2023-04-25T09:08:43;4.70;;;3.60;;
9248;SDS011;4660;41.768;26.198;2023-04-25T09:11:09;3.70;;;3.00;;
9248;SDS011;4660;41.768;26.198;2023-04-25T09:13:36;3.33;;;2.97;;
9248;SDS011;4660;41.768;26.198;2023-04-25T09:16:02;5.63;;;3.42;;
9248;SDS011;4660;41.768;26.198;2023-04-25T09:18:28;5.05;;;2.97;;
9248;SDS011;4660;41.768;26.198;2023-04-25T09:20:57;3.38;;;3.08;;
9248;SDS011;4660;41.768;26.198;2023-04-25T09:23:41;3.92;;;3.33;;
9248;SDS011;4660;41.768;26.198;2023-04-25T09:26:08;3.17;;;2.88;;
9248;SDS011;4660;41.768;26.198;2023-04-25T09:28:35;3.30;;;2.88;;
9248;SDS011;4660;41.768;26.198;2023-04-25T09:31:03;4.03;;;2.50;;
9248;SDS011;4660;41.768;26.198;2023-04-25T09:33:29;3.00;;;2.72;;
9248;SDS011;4660;41.768;26.198;2023-04-25T09:36:09;4.93;;;2.75;;
9248;SDS011;4660;41.768;26.198;2023-04-25T09:38:45;3.70;;;2.60;;
9248;SDS011;4660;41.768;26.198;2023-04-25T09:41:23;2.55;;;2.30;;
9248;SDS011;4660;41.768;26.198;2023-04-25T09:43:49;4.38;;;3.22;;
9248;SDS011;4660;41.768;26.198;2023-04-25T09:46:17;3.47;;;3.17;;
9248;SDS011;4660;41.768;26.198;2023-04-25T09:48:49;4.43;;;2.72;;
9248;SDS011;4660;41.768;26.198;2023-04-25T09:51:16;2.95;;;2.67;;
9248;SDS011;4660;41.768;26.198;2023-04-25T09:53:43;4.05;;;3.08;;
9248;SDS011;4660;41.768;26.198;2023-04-25T09:56:13;3.20;;;2.80;;
9248;SDS011;4660;41.768;26.198;2023-04-25T09:59:01;2.88;;;2.40;;
9248;SDS011;4660;41.768;26.198;2023-04-25T10:01:30;3.55;;;2.15;;
9248;SDS011;4660;41.768;26.198;2023-04-25T10:03:57;2.70;;;2.33;;
9248;SDS011;4660;41.768;26.198;2023-04-25T10:06:26;4.85;;;2.22;;
9248;SDS011;4660;41.768;26.198;2023-04-25T10:08:54;3.28;;;2.40;;
9248;SDS011;4660;41.768;26.198;2023-04-25T10:11:21;3.35;;;2.53;;
9248;SDS011;4660;41.768;26.198;2023-04-25T10:13:51;2.10;;;2.00;;
9248;SDS011;4660;41.768;26.198;2023-04-25T10:16:19;3.67;;;2.00;;
9248;SDS011;4660;41.768;26.198;2023-04-25T10:18:50;2.65;;;2.03;;
9248;SDS011;4660;41.768;26.198;2023-04-25T10:21:17;3.28;;;2.22;;
9248;SDS011;4660;41.768;26.198;2023-04-25T10:23:48;2.92;;;2.40;;
9248;SDS011;4660;41.768;26.198;2023-04-25T10:26:14;2.65;;;2.40;;
9248;SDS011;4660;41.768;26.198;2023-04-25T10:28:58;4.05;;;2.40;;
9248;SDS011;4660;41.768;26.198;2023-04-25T10:31:30;8.05;;;3.15;;
9248;SDS011;4660;41.768;26.198;2023-04-25T10:34:10;4.15;;;2.85;;
9248;SDS011;4660;41.768;26.198;2023-04-25T10:36:36;3.53;;;3.22;;
9248;SDS011;4660;41.768;26.198;2023-04-25T10:39:06;4.50;;;3.00;;
9248;SDS011;4660;41.768;26.198;2023-04-25T10:41:48;3.47;;;2.88;;
9248;SDS011;4660;41.768;26.198;2023-04-25T10:44:27;4.30;;;3.35;;
9248;SDS011;4660;41.768;26.198;2023-04-25T10:46:57;5.97;;;3.13;;
9248;SDS011;4660;41.768;26.198;2023-04-25T10:49:30;4.65;;;3.30;;
9248;SDS011;4660;41.768;26.198;2023-04-25T10:54:41;3.97;;;3.20;;
9248;SDS011;4660;41.768;26.198;2023-04-25T10:57:25;3.20;;;2.67;;
9248;SDS011;4660;41.768;26.198;2023-04-25T11:00:14;2.92;;;2.72;;
9248;SDS011;4660;41.768;26.198;2023-04-25T11:02:43;3.15;;;2.75;;
9248;SDS011;4660;41.768;26.198;2023-04-25T11:05:20;3.97;;;3.00;;
9248;SDS011;4660;41.768;26.198;2023-04-25T11:07:54;10.07;;;4.10;;
9248;SDS011;4660;41.768;26.198;2023-04-25T11:10:29;4.38;;;3.67;;
9248;SDS011;4660;41.768;26.198;2023-04-25T11:12:57;6.38;;;4.57;;
9248;SDS011;4660;41.768;26.198;2023-04-25T11:15:23;5.93;;;5.32;;
9248;SDS011;4660;41.768;26.198;2023-04-25T11:17:53;8.95;;;5.05;;
9248;SDS011;4660;41.768;26.198;2023-04-25T11:20:20;6.07;;;4.82;;
9248;SDS011;4660;41.768;26.198;2023-04-25T11:22:47;7.15;;;4.72;;
9248;SDS011;4660;41.768;26.198;2023-04-25T11:25:14;7.28;;;4.70;;
9248;SDS011;4660;41.768;26.198;2023-04-25T11:27:50;10.05;;;4.22;;
9248;SDS011;4660;41.768;26.198;2023-04-25T11:30:27;9.70;;;5.15;;
9248;SDS011;4660;41.768;26.198;2023-04-25T11:32:55;7.30;;;4.57;;
9248;SDS011;4660;41.768;26.198;2023-04-25T11:35:21;7.20;;;4.50;;
9248;SDS011;4660;41.768;26.198;2023-04-25T11:37:48;4.32;;;3.92;;
9248;SDS011;4660;41.768;26.198;2023-04-25T11:40:15;4.30;;;3.80;;
9248;SDS011;4660;41.768;26.198;2023-04-25T11:42:44;4.15;;;3.20;;
9248;SDS011;4660;41.768;26.198;2023-04-25T11:45:11;3.20;;;2.45;;
9248;SDS011;4660;41.768;26.198;2023-04-25T11:47:38;2.42;;;2.22;;
9248;SDS011;4660;41.768;26.198;2023-04-25T11:50:04;3.13;;;2.60;;
9248;SDS011;4660;41.768;26.198;2023-04-25T11:52:50;4.43;;;2.57;;
9248;SDS011;4660;41.768;26.198;2023-04-25T11:55:18;7.83;;;2.00;;
9248;SDS011;4660;41.768;26.198;2023-04-25T11:57:47;2.27;;;2.00;;
9248;SDS011;4660;41.768;26.198;2023-04-25T12:00:20;3.33;;;1.93;;
9248;SDS011;4660;41.768;26.198;2023-04-25T12:02:47;2.73;;;2.20;;
9248;SDS011;4660;41.768;26.198;2023-04-25T12:05:17;4.07;;;3.07;;
9248;SDS011;4660;41.768;26.198;2023-04-25T12:07:45;3.37;;;2.40;;
9248;SDS011;4660;41.768;26.198;2023-04-25T12:10:12;2.80;;;2.53;;
9248;SDS011;4660;41.768;26.198;2023-04-25T12:12:43;3.60;;;3.30;;
9248;SDS011;4660;41.768;26.198;2023-04-25T12:17:37;4.67;;;3.33;;
9248;SDS011;4660;41.768;26.198;2023-04-25T12:20:08;3.63;;;3.10;;
9248;SDS011;4660;41.768;26.198;2023-04-25T12:22:35;3.03;;;2.83;;
9248;SDS011;4660;41.768;26.198;2023-04-25T12:25:02;3.07;;;2.80;;
9248;SDS011;4660;41.768;26.198;2023-04-25T12:27:30;3.30;;;2.93;;
9248;SDS011;4660;41.768;26.198;2023-04-25T12:29:57;3.40;;;3.15;;
9248;SDS011;4660;41.768;26.198;2023-04-25T12:32:24;8.93;;;3.60;;
9248;SDS011;4660;41.768;26.198;2023-04-25T12:34:51;5.10;;;3.20;;
9248;SDS011;4660;41.768;26.198;2023-04-25T12:37:17;3.93;;;3.53;;
9248;SDS011;4660;41.768;26.198;2023-04-25T12:39:42;3.03;;;2.83;;
9248;SDS011;4660;41.768;26.198;2023-04-25T12:42:08;2.97;;;2.78;;
9248;SDS011;4660;41.768;26.198;2023-04-25T12:44:36;2.45;;;1.92;;
9248;SDS011;4660;41.768;26.198;2023-04-25T12:47:02;6.85;;;6.05;;
9248;SDS011;4660;41.768;26.198;2023-04-25T12:49:28;3.67;;;2.45;;
9248;SDS011;4660;41.768;26.198;2023-04-25T12:51:54;4.35;;;2.40;;
9248;SDS011;4660;41.768;26.198;2023-04-25T12:54:20;4.03;;;2.38;;
9248;SDS011;4660;41.768;26.198;2023-04-25T12:56:45;14.55;;;3.08;;
9248;SDS011;4660;41.768;26.198;2023-04-25T12:59:11;5.45;;;1.90;;
9248;SDS011;4660;41.768;26.198;2023-04-25T13:01:37;5.70;;;2.20;;
9248;SDS011;4660;41.768;26.198;2023-04-25T13:04:02;3.13;;;2.80;;
9248;SDS011;4660;41.768;26.198;2023-04-25T13:06:28;4.60;;;4.18;;
9248;SDS011;4660;41.768;26.198;2023-04-25T13:08:55;5.57;;;3.28;;
9248;SDS011;4660;41.768;26.198;2023-04-25T13:11:21;4.10;;;3.30;;
9248;SDS011;4660;41.768;26.198;2023-04-25T13:13:47;2.88;;;2.55;;
9248;SDS011;4660;41.768;26.198;2023-04-25T13:16:12;6.32;;;4.00;;
9248;SDS011;4660;41.768;26.198;2023-04-25T13:18:39;3.40;;;3.10;;
9248;SDS011;4660;41.768;26.198;2023-04-25T13:21:09;4.07;;;3.67;;
9248;SDS011;4660;41.768;26.198;2023-04-25T13:23:37;4.13;;;2.25;;
9248;SDS011;4660;41.768;26.198;2023-04-25T13:26:02;4.70;;;3.00;;
9248;SDS011;4660;41.768;26.198;2023-04-25T13:28:28;4.50;;;4.00;;
9248;SDS011;4660;41.768;26.198;2023-04-25T13:30:54;5.32;;;4.82;;
9248;SDS011;4660;41.768;26.198;2023-04-25T13:33:20;15.57;;;7.50;;
9248;SDS011;4660;41.768;26.198;2023-04-25T13:35:46;7.85;;;5.22;;
9248;SDS011;4660;41.768;26.198;2023-04-25T13:38:19;5.45;;;4.60;;
9248;SDS011;4660;41.768;26.198;2023-04-25T13:40:47;3.67;;;3.20;;
9248;SDS011;4660;41.768;26.198;2023-04-25T13:43:12;2.88;;;2.67;;
9248;SDS011;4660;41.768;26.198;2023-04-25T13:45:39;5.10;;;3.65;;
9248;SDS011;4660;41.768;26.198;2023-04-25T13:48:04;3.85;;;3.45;;
9248;SDS011;4660;41.768;26.198;2023-04-25T13:50:30;4.57;;;4.13;;
9248;SDS011;4660;41.768;26.198;2023-04-25T13:52:57;17.23;;;9.05;;
9248;SDS011;4660;41.768;26.198;2023-04-25T13:55:22;14.03;;;11.87;;
9248;SDS011;4660;41.768;26.198;2023-04-25T13:57:48;14.38;;;12.52;;
9248;SDS011;4660;41.768;26.198;2023-04-25T14:00:14;9.68;;;7.70;;
9248;SDS011;4660;41.768;26.198;2023-04-25T14:02:40;5.75;;;5.10;;
9248;SDS011;4660;41.768;26.198;2023-04-25T14:05:08;2.97;;;2.50;;
9248;SDS011;4660;41.768;26.198;2023-04-25T14:07:34;4.27;;;2.67;;
9248;SDS011;4660;41.768;26.198;2023-04-25T14:10:00;2.97;;;1.80;;
9248;SDS011;4660;41.768;26.198;2023-04-25T14:12:29;4.93;;;2.95;;
9248;SDS011;4660;41.768;26.198;2023-04-25T14:14:54;2.40;;;2.00;;
9248;SDS011;4660;41.768;26.198;2023-04-25T14:17:20;3.07;;;1.60;;
9248;SDS011;4660;41.768;26.198;2023-04-25T14:19:45;3.77;;;2.40;;
9248;SDS011;4660;41.768;26.198;2023-04-25T14:22:13;2.97;;;2.20;;
9248;SDS011;4660;41.768;26.198;2023-04-25T14:24:42;8.83;;;7.20;;
9248;SDS011;4660;41.768;26.198;2023-04-25T14:27:08;4.13;;;3.00;;
9248;SDS011;4660;41.768;26.198;2023-04-25T14:29:37;1.52;;;1.42;;
9248;SDS011;4660;41.768;26.198;2023-04-25T14:32:02;5.03;;;2.20;;
9248;SDS011;4660;41.768;26.198;2023-04-25T14:34:31;4.40;;;2.33;;
9248;SDS011;4660;41.768;26.198;2023-04-25T14:36:57;5.33;;;3.53;;
9248;SDS011;4660;41.768;26.198;2023-04-25T14:39:22;7.17;;;3.20;;
9248;SDS011;4660;41.768;26.198;2023-04-25T14:41:48;4.03;;;3.20;;
9248;SDS011;4660;41.768;26.198;2023-04-25T14:44:13;6.97;;;5.40;;
9248;SDS011;4660;41.768;26.198;2023-04-25T14:46:40;4.10;;;3.40;;
9248;SDS011;4660;41.768;26.198;2023-04-25T14:49:06;4.78;;;3.55;;
9248;SDS011;4660;41.768;26.198;2023-04-25T14:51:32;5.85;;;3.38;;
9248;SDS011;4660;41.768;26.198;2023-04-25T14:53:58;3.95;;;3.55;;
9248;SDS011;4660;41.768;26.198;2023-04-25T14:56:23;6.22;;;3.72;;
9248;SDS011;4660;41.768;26.198;2023-04-25T14:58:49;3.55;;;3.17;;
9248;SDS011;4660;41.768;26.198;2023-04-25T15:01:14;6.15;;;3.38;;
9248;SDS011;4660;41.768;26.198;2023-04-25T15:03:40;3.20;;;2.78;;
9248;SDS011;4660;41.768;26.198;2023-04-25T15:06:07;4.22;;;3.15;;
9248;SDS011;4660;41.768;26.198;2023-04-25T15:08:32;3.78;;;2.35;;
9248;SDS011;4660;41.768;26.198;2023-04-25T15:11:01;2.50;;;2.30;;
9248;SDS011;4660;41.768;26.198;2023-04-25T15:13:28;2.38;;;2.20;;
9248;SDS011;4660;41.768;26.198;2023-04-25T15:15:53;2.42;;;2.17;;
9248;SDS011;4660;41.768;26.198;2023-04-25T15:18:22;3.17;;;2.40;;
9248;SDS011;4660;41.768;26.198;2023-04-25T15:20:49;2.10;;;1.90;;
9248;SDS011;4660;41.768;26.198;2023-04-25T15:23:17;3.03;;;2.40;;